Time;durP1;ratioP1;P1;durP2;ratioP2;P2;SDS_P1;SDS_P2;PMS_P1;PMS_P2;Temp;Humidity;BMP_temperature;BMP_pressure;BME280_temperature;BME280_humidity;BME280_pressure;Samples;Min_cycle;Max_cycle;Signal;HPM_P1;HPM_P2
2022/07/02 00:00:20;;;;;;;3.08;2.77;;;;;;;27.15;47.94;100748.43;1738414;82;21495;-81
2022/07/02 00:02:50;;;;;;;3.25;2.95;;;;;;;27.16;47.95;100752.23;1738830;82;21570;-81
2022/07/02 00:05:19;;;;;;;3.27;2.98;;;;;;;27.16;47.94;100753.63;1738687;82;21470;-81
2022/07/02 00:07:45;;;;;;;3.37;3.02;;;;;;;27.15;47.96;100754.83;1738773;82;21574;-81
2022/07/02 00:10:12;;;;;;;3.40;3.10;;;;;;;27.16;47.96;100752.82;1738646;82;21041;-81
2022/07/02 00:12:38;;;;;;;3.47;3.12;;;;;;;27.15;47.96;100754.83;1738502;82;20998;-81
2022/07/02 00:15:06;;;;;;;4.60;3.20;;;;;;;27.15;47.99;100752.63;1738562;82;20994;-81
2022/07/02 00:17:32;;;;;;;3.60;3.00;;;;;;;27.14;47.97;100753.20;1738828;82;21029;-81
2022/07/02 00:19:58;;;;;;;3.50;3.20;;;;;;;27.15;48.01;100758.20;1711113;82;21188;-81
2022/07/02 00:22:26;;;;;;;3.37;3.08;;;;;;;27.14;48.00;100749.59;1738707;82;20961;-81
2022/07/02 00:24:52;;;;;;;3.40;3.10;;;;;;;27.15;48.01;100749.25;1738544;82;21056;-81
2022/07/02 00:27:19;;;;;;;3.85;3.45;;;;;;;27.15;48.03;100754.02;1738500;82;21097;-81
2022/07/02 00:30:01;;;;;;;4.30;3.05;;;;;;;27.15;48.04;100754.02;1738674;82;21029;-81
2022/07/02 00:32:29;;;;;;;4.50;2.95;;;;;;;27.16;48.01;100757.01;1738089;82;21192;-81
2022/07/02 00:34:57;;;;;;;3.50;3.10;;;;;;;27.15;48.03;100761.81;1735327;82;21020;-81
2022/07/02 00:37:26;;;;;;;3.40;3.10;;;;;;;27.14;48.03;100758.79;1738818;82;21013;-81
2022/07/02 00:39:56;;;;;;;3.22;2.92;;;;;;;27.14;48.05;100767.75;1738811;82;21116;-81
2022/07/02 00:42:26;;;;;;;3.30;3.00;;;;;;;27.15;48.05;100766.59;1738623;82;21617;-81
2022/07/02 00:44:52;;;;;;;3.33;3.02;;;;;;;27.15;48.08;100765.19;1738638;82;21309;-81
2022/07/02 00:47:21;;;;;;;4.25;3.27;;;;;;;27.14;48.09;100762.98;1738287;82;21646;-81
2022/07/02 00:49:48;;;;;;;3.10;2.80;;;;;;;27.13;48.08;100756.34;1738633;82;21567;-81
2022/07/02 00:52:20;;;;;;;3.08;2.77;;;;;;;27.14;48.09;100757.98;1738398;82;21092;-81
2022/07/02 00:54:46;;;;;;;3.40;3.10;;;;;;;27.14;48.10;100760.77;1738408;82;21065;-81
2022/07/02 00:57:13;;;;;;;4.65;2.98;;;;;;;27.15;48.13;100761.00;1738575;82;21145;-81
2022/07/02 00:59:39;;;;;;;3.33;3.02;;;;;;;27.14;48.14;100764.38;1738444;82;21444;-81
2022/07/02 01:02:08;;;;;;;3.75;3.37;;;;;;;27.14;48.13;100753.78;1738255;82;21029;-81
2022/07/02 01:04:35;;;;;;;2.92;2.62;;;;;;;27.14;48.13;100763.56;1738429;82;21048;-81
2022/07/02 01:07:04;;;;;;;3.50;3.02;;;;;;;27.12;48.13;100761.12;1738430;82;21080;-81
2022/07/02 01:12:25;;;;;;;3.47;2.98;;;;;;;27.12;48.18;100762.52;1737986;82;21564;-81
2022/07/02 01:14:52;;;;;;;4.40;3.02;;;;;;;27.12;48.17;100760.31;1737864;82;21056;-81
2022/07/02 01:17:19;;;;;;;4.45;3.15;;;;;;;27.12;48.18;100756.12;1738353;82;21108;-81
2022/07/02 01:19:45;;;;;;;3.80;3.08;;;;;;;27.12;48.18;100763.10;1738317;82;21693;-81
2022/07/02 01:22:25;;;;;;;3.00;2.70;;;;;;;27.12;48.19;100760.31;1738022;82;22461;-81
2022/07/02 01:24:53;;;;;;;3.98;3.30;;;;;;;27.12;48.20;100758.91;1738312;82;21602;-81
2022/07/02 01:27:21;;;;;;;3.50;3.20;;;;;;;27.12;48.22;100768.69;1738464;82;21045;-81
2022/07/02 01:29:47;;;;;;;3.10;2.80;;;;;;;27.12;48.23;100770.08;1738669;82;21546;-81
2022/07/02 01:32:14;;;;;;;3.92;3.50;;;;;;;27.11;48.24;100772.09;1738719;82;21089;-81
2022/07/02 01:34:43;;;;;;;4.08;3.67;;;;;;;27.11;48.25;100774.89;1738315;82;20934;-81
2022/07/02 01:37:12;;;;;;;3.42;3.08;;;;;;;27.11;48.27;100775.47;1738581;82;21535;-81
2022/07/02 01:39:39;;;;;;;4.05;3.02;;;;;;;27.12;48.31;100777.06;1738608;82;21516;-81
2022/07/02 01:42:06;;;;;;;3.45;3.15;;;;;;;27.11;48.29;100776.86;1738304;82;21097;-81
2022/07/02 01:44:33;;;;;;;3.25;2.95;;;;;;;27.12;48.30;100771.48;1738603;82;21025;-81
2022/07/02 01:47:02;;;;;;;3.83;3.10;;;;;;;27.11;48.30;100776.28;1738417;82;21066;-81
2022/07/02 01:49:28;;;;;;;3.75;3.30;;;;;;;27.12;48.31;100778.46;1738341;82;21053;-81
2022/07/02 01:51:55;;;;;;;4.62;3.52;;;;;;;27.11;48.30;100774.89;1738543;82;21057;-81
2022/07/02 01:54:22;;;;;;;4.25;3.55;;;;;;;27.11;48.30;100776.28;1738806;82;21034;-81
2022/07/02 01:56:48;;;;;;;3.75;3.45;;;;;;;27.12;48.32;100775.08;1738496;82;21061;-81
2022/07/02 01:59:14;;;;;;;3.60;3.30;;;;;;;27.11;48.34;100779.08;1738599;82;21269;-81
2022/07/02 02:01:41;;;;;;;3.40;3.10;;;;;;;27.12;48.35;100778.46;1719739;82;21112;-81
2022/07/02 02:04:08;;;;;;;3.62;3.33;;;;;;;27.11;48.38;100783.84;1718561;83;21053;-81
2022/07/02 02:06:34;;;;;;;5.33;3.33;;;;;;;27.12;48.38;100781.25;1680343;85;21100;-81
2022/07/02 02:09:01;;;;;;;3.67;3.25;;;;;;;27.11;48.38;100783.27;1718867;82;21566;-81
2022/07/02 02:11:33;;;;;;;3.40;3.00;;;;;;;27.11;48.39;100783.84;1718542;83;21045;-81
2022/07/02 02:14:00;;;;;;;3.20;2.90;;;;;;;27.11;48.39;100790.25;1718654;83;21073;-81
2022/07/02 02:16:27;;;;;;;3.50;3.20;;;;;;;27.11;48.40;100790.83;1718915;83;21072;-81
2022/07/02 02:18:54;;;;;;;3.27;2.92;;;;;;;27.11;48.43;100793.63;1718385;83;21046;-81
2022/07/02 02:21:24;;;;;;;3.37;3.00;;;;;;;27.11;48.44;100797.81;1718882;82;21057;-81
2022/07/02 02:23:51;;;;;;;3.95;3.40;;;;;;;27.11;48.44;100803.39;1718541;83;21129;-81
2022/07/02 02:26:17;;;;;;;3.95;3.40;;;;;;;27.11;48.45;100815.96;1718814;83;21018;-81
2022/07/02 02:28:44;;;;;;;4.12;3.72;;;;;;;27.10;48.46;100810.14;1680061;85;21596;-81
2022/07/02 02:31:10;;;;;;;3.30;2.95;;;;;;;27.11;48.46;100814.56;1718745;83;21009;-82
2022/07/02 02:33:37;;;;;;;4.28;3.05;;;;;;;27.10;48.45;100813.75;1680381;85;21108;-82
2022/07/02 02:36:04;;;;;;;4.72;3.45;;;;;;;27.10;48.45;100798.97;1718839;83;21074;-82
2022/07/02 02:38:36;;;;;;;3.95;3.37;;;;;;;27.10;48.48;100799.79;1679982;85;21026;-81
2022/07/02 02:41:07;;;;;;;3.92;3.58;;;;;;;27.09;48.47;100794.55;1718498;83;21052;-81
2022/07/02 02:43:34;;;;;;;3.60;3.30;;;;;;;27.10;48.49;100799.79;1718882;82;21112;-81
2022/07/02 02:46:00;;;;;;;6.58;3.62;;;;;;;27.09;48.49;100796.77;1718544;83;21057;-81
2022/07/02 02:48:27;;;;;;;4.30;3.40;;;;;;;27.10;48.51;100798.97;1718442;82;21194;-81
2022/07/02 02:50:54;;;;;;;3.70;3.17;;;;;;;27.09;48.53;100799.56;1718611;83;20989;-81
2022/07/02 02:53:20;;;;;;;4.08;3.67;;;;;;;27.10;48.52;100811.54;1718858;83;21539;-81
2022/07/02 02:55:47;;;;;;;3.87;3.45;;;;;;;27.10;48.55;100812.94;1728044;82;21593;-81
2022/07/02 02:58:13;;;;;;;4.22;3.55;;;;;;;27.10;48.52;100808.75;1718645;83;21667;-81
2022/07/02 03:00:40;;;;;;;4.40;3.67;;;;;;;27.10;48.57;100810.14;1722659;82;21942;-81
2022/07/02 03:03:06;;;;;;;3.67;3.25;;;;;;;27.09;48.58;100816.31;1738662;82;21021;-81
2022/07/02 03:05:33;;;;;;;3.80;3.27;;;;;;;27.09;48.59;100820.50;1738936;82;21021;-81
2022/07/02 03:08:05;;;;;;;3.70;3.40;;;;;;;27.09;48.62;100820.50;1738992;82;21045;-81
2022/07/02 03:10:32;;;;;;;4.00;3.60;;;;;;;27.09;48.62;100822.48;1738849;81;21028;-81
2022/07/02 03:12:58;;;;;;;4.50;3.72;;;;;;;27.09;48.62;100821.08;1717789;83;21344;-81
2022/07/02 03:15:25;;;;;;;3.72;3.35;;;;;;;27.09;48.62;100822.48;1717666;82;21116;-81
2022/07/02 03:17:57;;;;;;;4.00;3.60;;;;;;;27.09;48.63;100823.87;1717801;83;21475;-81
2022/07/02 03:20:24;;;;;;;4.25;3.33;;;;;;;27.10;48.64;100836.67;1718209;83;21049;-81
2022/07/02 03:22:50;;;;;;;4.10;3.50;;;;;;;27.08;48.66;100832.84;1718121;83;21044;-81
2022/07/02 03:25:17;;;;;;;4.03;3.62;;;;;;;27.09;48.69;100830.86;1717965;83;21110;-81
2022/07/02 03:27:43;;;;;;;3.90;3.50;;;;;;;27.08;48.67;100839.81;1735767;81;21569;-81
2022/07/02 03:30:11;;;;;;;4.78;3.35;;;;;;;27.09;48.69;100843.42;1766860;81;21025;-81
2022/07/02 03:32:37;;;;;;;4.00;3.70;;;;;;;27.07;48.68;100834.03;1766640;81;21496;-81
2022/07/02 03:35:05;;;;;;;5.47;3.75;;;;;;;27.08;48.69;100842.61;1767088;81;21026;-81
2022/07/02 03:37:31;;;;;;;4.70;3.37;;;;;;;27.09;48.71;100851.80;1766558;81;21689;-81
2022/07/02 03:39:58;;;;;;;3.85;3.45;;;;;;;27.09;48.71;100853.20;1766557;81;21494;-81
2022/07/02 03:42:24;;;;;;;4.97;3.80;;;;;;;27.09;48.71;100860.18;1766986;81;21077;-81
2022/07/02 03:44:51;;;;;;;4.45;3.33;;;;;;;27.09;48.71;100864.37;1767094;81;21057;-81
2022/07/02 03:47:17;;;;;;;3.50;3.20;;;;;;;27.08;48.72;100855.17;1766968;81;21037;-81
2022/07/02 03:49:44;;;;;;;3.65;3.10;;;;;;;27.09;48.72;100855.99;1737451;81;21022;-80
2022/07/02 03:52:10;;;;;;;4.45;3.58;;;;;;;27.09;48.71;100855.41;1736478;82;20998;-81
2022/07/02 03:54:37;;;;;;;4.03;3.62;;;;;;;27.09;48.73;100854.59;1736346;82;21043;-81
2022/07/02 03:57:09;;;;;;;4.40;3.80;;;;;;;27.09;48.73;100855.41;1736292;82;21030;-81
2022/07/02 03:59:36;;;;;;;4.80;3.47;;;;;;;27.09;48.73;100860.18;1736590;82;21070;-81
2022/07/02 04:02:03;;;;;;;4.22;3.47;;;;;;;27.09;48.75;100858.78;1736791;82;21493;-81
2022/07/02 04:04:29;;;;;;;3.42;3.12;;;;;;;27.09;48.75;100858.20;1737166;82;21046;-81
2022/07/02 04:06:55;;;;;;;5.47;3.30;;;;;;;27.10;48.75;100859.02;1737270;82;21054;-81
2022/07/02 04:09:22;;;;;;;4.22;3.37;;;;;;;27.09;48.76;100862.39;1736968;82;21042;-81
2022/07/02 04:11:49;;;;;;;5.28;3.80;;;;;;;27.09;48.77;100857.39;1737132;82;21595;-81
2022/07/02 04:14:15;;;;;;;3.83;3.42;;;;;;;27.10;48.78;100861.81;1736948;82;21945;-81
2022/07/02 04:16:42;;;;;;;4.08;3.27;;;;;;;27.10;48.79;100860.41;1736899;82;21035;-81
2022/07/02 04:19:08;;;;;;;4.10;3.75;;;;;;;27.10;48.78;100866.81;1737137;82;21082;-81
2022/07/02 04:21:34;;;;;;;4.45;3.60;;;;;;;27.10;48.79;100874.37;1736952;82;21031;-81
2022/07/02 04:24:01;;;;;;;4.58;3.80;;;;;;;27.10;48.79;100867.40;1736896;82;21078;-81
2022/07/02 04:26:27;;;;;;;4.00;3.45;;;;;;;27.10;48.82;100869.61;1737128;82;21553;-81
2022/07/02 04:28:54;;;;;;;3.92;3.52;;;;;;;27.10;48.83;100871.00;1737200;82;20940;-81
2022/07/02 04:31:20;;;;;;;4.17;3.72;;;;;;;27.11;48.85;100869.03;1736666;82;21046;-81
2022/07/02 04:33:47;;;;;;;3.62;3.33;;;;;;;27.10;48.85;100872.40;1737204;82;21060;-81
2022/07/02 04:36:13;;;;;;;4.15;3.50;;;;;;;27.11;48.83;100875.42;1737193;82;21058;-81
2022/07/02 04:38:40;;;;;;;4.03;3.62;;;;;;;27.11;48.85;100869.03;1736936;82;21055;-81
2022/07/02 04:41:06;;;;;;;3.87;3.50;;;;;;;27.12;48.84;100873.41;1737015;82;21035;-81
2022/07/02 04:43:32;;;;;;;3.90;3.47;;;;;;;27.12;48.87;100872.84;1737109;82;21057;-81
2022/07/02 04:45:59;;;;;;;4.92;3.52;;;;;;;27.12;48.89;100878.42;1737011;82;21003;-81
2022/07/02 04:48:25;;;;;;;4.47;4.08;;;;;;;27.12;48.89;100885.41;1743423;81;21115;-81
2022/07/02 04:50:52;;;;;;;4.55;3.80;;;;;;;27.13;48.89;100882.03;1752437;81;21115;-81
2022/07/02 04:53:18;;;;;;;3.60;3.30;;;;;;;27.13;48.89;100886.22;1724032;83;21063;-81
2022/07/02 04:55:45;;;;;;;3.83;3.47;;;;;;;27.13;48.90;100891.80;1721173;82;21056;-81
2022/07/02 04:58:11;;;;;;;3.75;3.45;;;;;;;27.12;48.90;100892.38;1715265;82;21626;-81
2022/07/02 05:00:38;;;;;;;3.62;3.33;;;;;;;27.14;48.92;100894.25;1739058;81;21001;-81
2022/07/02 05:03:04;;;;;;;3.87;3.40;;;;;;;27.14;48.93;100893.44;1739580;81;21058;-81
2022/07/02 05:05:31;;;;;;;4.15;3.75;;;;;;;27.16;48.96;100892.47;1724480;83;21046;-81
2022/07/02 05:07:57;;;;;;;4.08;3.50;;;;;;;27.15;48.94;100900.06;1739483;81;21042;-81
2022/07/02 05:10:24;;;;;;;6.17;3.45;;;;;;;27.16;48.96;100899.45;1739606;81;21108;-81
2022/07/02 05:12:50;;;;;;;3.83;3.42;;;;;;;27.15;48.98;100900.06;1739776;81;21748;-81
2022/07/02 05:15:16;;;;;;;3.90;3.60;;;;;;;27.15;48.99;100900.06;1739335;81;22055;-81
2022/07/02 05:17:43;;;;;;;3.62;3.22;;;;;;;27.15;48.99;100904.25;1733955;81;21566;-81
2022/07/02 05:20:10;;;;;;;4.30;3.85;;;;;;;27.16;49.00;100909.23;1710264;83;21144;-81
2022/07/02 05:22:37;;;;;;;4.40;4.00;;;;;;;27.16;49.01;100908.65;1709894;83;21579;-81
2022/07/02 05:25:04;;;;;;;3.98;3.62;;;;;;;27.16;49.04;100911.44;1710143;83;21057;-81
2022/07/02 05:27:30;;;;;;;4.12;3.72;;;;;;;27.16;49.06;100911.44;1710260;82;21113;-81
2022/07/02 05:29:56;;;;;;;4.05;3.65;;;;;;;27.16;49.11;100914.23;1697438;83;21042;-81
2022/07/02 05:32:23;;;;;;;4.42;3.65;;;;;;;27.17;49.13;100910.86;1710118;83;21010;-81
2022/07/02 05:34:49;;;;;;;3.90;3.45;;;;;;;27.17;49.18;100916.45;1710263;82;21525;-81
2022/07/02 05:37:16;;;;;;;5.22;3.65;;;;;;;27.17;49.19;100921.45;1701605;83;21018;-81
2022/07/02 05:39:42;;;;;;;4.28;3.85;;;;;;;27.17;49.22;100924.24;1724478;83;21733;-81
2022/07/02 05:42:09;;;;;;;3.87;3.47;;;;;;;27.18;49.24;100921.68;1724409;83;21035;-81
2022/07/02 05:44:35;;;;;;;4.37;3.60;;;;;;;27.18;49.27;100924.48;1724221;83;21063;-81
2022/07/02 05:47:08;;;;;;;3.92;3.40;;;;;;;27.18;49.27;100918.89;1724489;83;21070;-81
2022/07/02 05:49:34;;;;;;;4.25;3.85;;;;;;;27.18;49.30;100918.08;1724794;81;21035;-81
2022/07/02 05:52:01;;;;;;;4.05;3.65;;;;;;;27.19;49.29;100915.52;1724309;83;21122;-81
2022/07/02 05:54:27;;;;;;;4.30;3.83;;;;;;;27.20;49.30;100914.34;1725718;82;21327;-81
2022/07/02 05:56:53;;;;;;;4.22;3.83;;;;;;;27.19;49.31;100915.52;1739855;81;21492;-81
2022/07/02 05:59:22;;;;;;;4.55;3.58;;;;;;;27.19;49.33;100923.89;1739510;82;20974;-81
2022/07/02 06:01:48;;;;;;;7.08;3.65;;;;;;;27.20;49.35;100923.52;1744235;81;21234;-81
2022/07/02 06:04:15;;;;;;;4.15;3.75;;;;;;;27.20;49.34;100921.33;1717679;83;21060;-81
2022/07/02 06:09:26;;;;;;;4.85;3.80;;;;;;;27.20;49.37;100927.70;1699896;84;21065;-81
2022/07/02 06:11:53;;;;;;;4.30;3.72;;;;;;;27.20;49.36;100920.72;1699839;84;21054;-81
2022/07/02 06:14:19;;;;;;;4.35;3.75;;;;;;;27.20;49.38;100925.52;1699869;83;21558;-81
2022/07/02 06:16:45;;;;;;;4.90;3.72;;;;;;;27.21;49.39;100927.12;1700165;83;22117;-81
2022/07/02 06:19:12;;;;;;;4.72;3.37;;;;;;;27.21;49.40;100927.94;1699817;84;21117;-81
2022/07/02 06:21:39;;;;;;;5.22;4.10;;;;;;;27.22;49.39;100935.73;1700048;83;21662;-81
2022/07/02 06:24:07;;;;;;;4.00;3.60;;;;;;;27.21;49.38;100934.92;1699838;84;21061;-81
2022/07/02 06:26:34;;;;;;;4.00;3.60;;;;;;;27.21;49.36;100933.52;1699775;84;21507;-81
2022/07/02 06:29:00;;;;;;;3.87;3.37;;;;;;;27.22;49.39;100930.15;1699957;84;21732;-81
2022/07/02 06:31:33;;;;;;;4.58;4.10;;;;;;;27.21;49.35;100930.73;1697007;84;21097;-81
2022/07/02 06:33:59;;;;;;;4.12;3.80;;;;;;;27.22;49.34;100934.34;1688902;83;21062;-81
2022/07/02 06:36:26;;;;;;;4.90;3.65;;;;;;;27.21;49.30;100936.31;1689327;84;21558;-81
2022/07/02 06:38:52;;;;;;;4.28;3.87;;;;;;;27.21;49.28;100930.73;1689069;83;21015;-81
2022/07/02 06:44:10;;;;;;;3.90;3.50;;;;;;;27.22;49.27;100928.17;1689173;84;21114;-81
2022/07/02 06:46:37;;;;;;;4.12;3.72;;;;;;;27.22;49.23;100926.77;1688999;83;21082;-81
2022/07/02 06:49:03;;;;;;;4.20;3.80;;;;;;;27.21;49.26;100929.33;1667089;84;21022;-81
2022/07/02 06:51:30;;;;;;;5.65;4.08;;;;;;;27.23;49.25;100930.38;1668826;86;21095;-81
2022/07/02 06:54:00;;;;;;;4.10;3.70;;;;;;;27.23;49.27;100930.38;1684128;84;21170;-81
2022/07/02 06:56:24;;;;;;;4.22;3.45;;;;;;;27.23;49.27;100935.97;1689138;83;21127;-81
2022/07/02 06:58:51;;;;;;;5.15;3.45;;;;;;;27.23;49.31;100934.57;1689173;84;21536;-81
2022/07/02 07:01:17;;;;;;;4.00;3.60;;;;;;;27.24;49.29;100937.59;1689258;83;21114;-81
2022/07/02 07:03:44;;;;;;;3.80;3.50;;;;;;;27.24;49.31;100940.39;1732395;82;21034;-81
2022/07/02 07:06:11;;;;;;;3.77;3.40;;;;;;;27.25;49.32;100944.78;1733571;82;21137;-81
2022/07/02 07:08:38;;;;;;;4.10;3.70;;;;;;;27.24;49.32;100940.39;1733175;82;21500;-81
2022/07/02 07:11:04;;;;;;;4.30;3.47;;;;;;;27.25;49.30;100939.20;1733618;82;21070;-81
2022/07/02 07:13:31;;;;;;;3.85;3.45;;;;;;;27.25;49.31;100940.59;1733333;82;21113;-81
2022/07/02 07:15:57;;;;;;;5.08;3.55;;;;;;;27.25;49.32;100938.61;1733273;82;21070;-81
2022/07/02 07:18:24;;;;;;;3.90;3.50;;;;;;;27.25;49.30;100940.59;1733574;82;21651;-81
2022/07/02 07:20:57;;;;;;;5.50;3.52;;;;;;;27.26;49.29;100944.44;1733321;82;21015;-81
2022/07/02 07:23:23;;;;;;;4.80;3.72;;;;;;;27.27;49.30;100950.84;1733144;82;21573;-82
2022/07/02 07:25:49;;;;;;;4.35;3.52;;;;;;;27.28;49.30;100955.84;1733548;82;22167;-82
2022/07/02 07:28:16;;;;;;;4.30;3.60;;;;;;;27.28;49.29;100952.47;1723823;83;21068;-82
2022/07/02 07:30:43;;;;;;;3.85;3.30;;;;;;;27.28;49.30;100957.44;1733290;82;21917;-82
2022/07/02 07:33:09;;;;;;;5.20;3.80;;;;;;;27.28;49.26;100956.05;1733468;82;21350;-82
2022/07/02 07:35:36;;;;;;;3.67;3.37;;;;;;;27.29;49.27;100963.84;1733633;82;21501;-82
2022/07/02 07:38:02;;;;;;;4.15;3.75;;;;;;;27.30;49.25;100962.68;1733438;82;21038;-82
2022/07/02 07:40:29;;;;;;;4.37;3.98;;;;;;;27.30;49.25;100960.47;1706683;82;21082;-82
2022/07/02 07:42:55;;;;;;;3.87;3.35;;;;;;;27.31;49.26;100965.70;1723927;83;21066;-82
2022/07/02 07:45:22;;;;;;;5.17;3.45;;;;;;;27.31;49.26;100965.70;1733305;81;21123;-82
2022/07/02 07:47:48;;;;;;;4.00;3.45;;;;;;;27.32;49.25;100961.75;1732948;82;21056;-82
2022/07/02 07:50:14;;;;;;;4.50;4.05;;;;;;;27.32;49.23;100969.31;1753863;81;21571;-82
2022/07/02 07:52:41;;;;;;;4.85;3.52;;;;;;;27.33;49.25;100959.16;1733583;82;21080;-82
2022/07/02 07:55:08;;;;;;;3.85;3.37;;;;;;;27.32;49.23;100965.13;1753858;81;21121;-82
2022/07/02 07:57:34;;;;;;;3.77;3.27;;;;;;;27.34;49.24;100972.55;1733592;82;20985;-82
2022/07/02 08:00:08;;;;;;;4.22;3.50;;;;;;;27.34;49.21;100964.16;1753649;81;21069;-82
2022/07/02 08:02:35;;;;;;;4.47;3.60;;;;;;;27.33;49.22;100963.34;1733522;82;21116;-82
2022/07/02 08:05:02;;;;;;;3.77;3.35;;;;;;;27.33;49.22;100963.96;1753716;81;21929;-82
2022/07/02 08:07:28;;;;;;;3.55;3.20;;;;;;;27.33;49.20;100963.34;1733567;82;21192;-82
2022/07/02 08:09:55;;;;;;;4.00;3.60;;;;;;;27.35;49.19;100967.19;1753683;81;20933;-82
2022/07/02 08:12:22;;;;;;;3.87;3.47;;;;;;;27.36;49.19;100966.03;1733704;82;21029;-82
2022/07/02 08:14:48;;;;;;;4.37;3.80;;;;;;;27.36;49.20;100973.02;1753240;81;21048;-82
2022/07/02 08:17:15;;;;;;;3.55;3.15;;;;;;;27.35;49.18;100967.19;1733572;82;21034;-82
2022/07/02 08:19:41;;;;;;;4.97;4.10;;;;;;;27.36;49.17;100975.22;1731994;82;21130;-81
2022/07/02 08:22:08;;;;;;;4.00;3.60;;;;;;;27.36;49.19;100975.22;1753608;81;21546;-81
2022/07/02 08:24:35;;;;;;;4.50;3.47;;;;;;;27.36;49.17;100971.62;1733600;82;21559;-81
2022/07/02 08:27:01;;;;;;;3.75;3.35;;;;;;;27.35;49.18;100970.80;1753874;81;21103;-81
2022/07/02 08:29:28;;;;;;;3.47;3.17;;;;;;;27.36;49.15;100971.62;1753568;81;21111;-81
2022/07/02 08:31:54;;;;;;;4.10;3.70;;;;;;;27.37;49.16;100975.42;1753878;81;21619;-81
2022/07/02 08:34:21;;;;;;;3.60;3.30;;;;;;;27.37;49.14;100969.84;1741126;82;20952;-81
2022/07/02 08:36:47;;;;;;;3.55;3.25;;;;;;;27.38;49.13;100976.23;1737040;82;20958;-81
2022/07/02 08:39:14;;;;;;;3.60;3.30;;;;;;;27.38;49.16;100977.64;1753867;81;21048;-81
2022/07/02 08:41:41;;;;;;;3.95;3.55;;;;;;;27.38;49.13;100973.45;1753850;81;21072;-81
2022/07/02 08:44:08;;;;;;;3.58;3.27;;;;;;;27.38;49.13;100981.83;1750807;81;21625;-81
2022/07/02 08:46:41;;;;;;;4.10;3.70;;;;;;;27.38;49.14;100984.62;1753853;81;21005;-81
2022/07/02 08:49:08;;;;;;;3.87;3.47;;;;;;;27.38;49.12;100983.23;1705298;82;21042;-81
2022/07/02 08:51:34;;;;;;;3.83;3.37;;;;;;;27.38;49.11;100976.23;1717966;82;21242;-82
2022/07/02 08:54:01;;;;;;;3.40;3.10;;;;;;;27.38;49.12;100975.66;1707744;83;21562;-82
2022/07/02 08:56:27;;;;;;;4.10;3.67;;;;;;;27.39;49.12;100979.27;1710133;83;21471;-82
2022/07/02 08:59:00;;;;;;;3.95;3.55;;;;;;;27.39;49.11;100986.25;1707255;84;21512;-82
2022/07/02 09:01:27;;;;;;;3.70;3.33;;;;;;;27.39;49.09;100985.67;1735278;82;21052;-82
2022/07/02 09:03:53;;;;;;;4.03;3.45;;;;;;;27.39;49.10;100981.48;1692736;84;21543;-82
2022/07/02 09:06:21;;;;;;;4.83;3.30;;;;;;;27.38;49.07;100982.64;1688416;85;21167;-82
2022/07/02 09:08:48;;;;;;;4.17;3.77;;;;;;;27.40;49.08;100976.70;1699908;83;21163;-82
2022/07/02 09:11:14;;;;;;;4.12;3.72;;;;;;;27.40;49.09;100979.50;1699870;84;21475;-82
2022/07/02 09:13:41;;;;;;;4.40;3.35;;;;;;;27.40;49.08;100979.50;1683433;84;21516;-82
2022/07/02 09:16:07;;;;;;;3.80;3.40;;;;;;;27.39;49.06;100974.50;1683761;84;21065;-82
2022/07/02 09:18:34;;;;;;;4.08;3.10;;;;;;;27.40;49.06;100978.11;1700050;84;21025;-82
2022/07/02 09:21:00;;;;;;;3.70;3.30;;;;;;;27.40;49.08;100971.94;1699881;84;21196;-82
2022/07/02 09:23:27;;;;;;;3.27;2.98;;;;;;;27.41;49.05;100975.55;1699932;84;21537;-82
2022/07/02 09:25:53;;;;;;;4.60;3.30;;;;;;;27.41;49.05;100974.15;1699999;84;20980;-82
2022/07/02 09:28:20;;;;;;;3.90;3.37;;;;;;;27.40;49.05;100971.94;1699788;84;21650;-82
2022/07/02 09:30:47;;;;;;;3.92;3.35;;;;;;;27.41;49.03;100978.34;1700025;84;21693;-82
2022/07/02 09:33:31;;;;;;;4.17;3.77;;;;;;;27.40;49.04;100973.91;1683912;84;21148;-82
2022/07/02 09:35:59;;;;;;;3.47;3.17;;;;;;;27.42;49.02;100975.74;1718465;83;21116;-82
2022/07/02 09:38:25;;;;;;;3.83;3.42;;;;;;;27.40;49.00;100972.52;1745911;81;21495;-82
2022/07/02 09:40:55;;;;;;;3.60;3.30;;;;;;;27.41;49.03;100976.36;1754114;81;21561;-82
2022/07/02 09:43:29;;;;;;;3.97;3.57;;;;;;;27.41;49.03;100972.17;1754093;81;21029;-82
2022/07/02 09:45:58;;;;;;;4.33;3.50;;;;;;;27.40;49.02;100977.52;1754183;81;21960;-82
2022/07/02 09:48:24;;;;;;;3.98;3.58;;;;;;;27.41;49.01;100977.75;1751990;81;21586;-82
2022/07/02 09:50:52;;;;;;;5.35;3.20;;;;;;;27.41;49.02;100979.16;1754271;81;21075;-82
2022/07/02 09:53:19;;;;;;;3.75;3.20;;;;;;;27.42;49.00;100972.95;1754088;81;21033;-81
2022/07/02 09:55:50;;;;;;;3.50;3.20;;;;;;;27.41;49.03;100976.36;1754158;81;21118;-81
2022/07/02 09:58:25;;;;;;;4.22;3.27;;;;;;;27.41;48.99;100973.56;1753964;81;21635;-82
2022/07/02 10:00:52;;;;;;;3.75;2.92;;;;;;;27.42;49.00;100977.95;1728190;81;21013;-82
2022/07/02 10:03:18;;;;;;;3.70;3.25;;;;;;;27.41;48.99;100980.55;1741907;81;21113;-81
2022/07/02 10:05:52;;;;;;;3.98;3.25;;;;;;;27.42;49.00;100968.77;1722425;82;21094;-81
2022/07/02 10:08:19;;;;;;;3.42;3.08;;;;;;;27.41;49.01;100973.56;1681519;84;21100;-82
2022/07/02 10:10:45;;;;;;;3.50;3.20;;;;;;;27.41;49.00;100967.16;1722628;82;21531;-82
2022/07/02 10:13:13;;;;;;;3.40;3.10;;;;;;;27.42;48.98;100967.36;1683328;84;21157;-82
2022/07/02 10:15:52;;;;;;;4.00;3.35;;;;;;;27.42;49.00;100967.36;1739730;82;21045;-81
2022/07/02 10:18:19;;;;;;;4.22;3.42;;;;;;;27.42;48.98;100967.36;1739859;82;21068;-81
2022/07/02 10:20:46;;;;;;;3.90;3.50;;;;;;;27.41;49.00;100972.75;1739522;82;21093;-82
2022/07/02 10:23:12;;;;;;;3.33;3.02;;;;;;;27.42;48.98;100974.34;1714395;82;22704;-82
2022/07/02 10:25:39;;;;;;;3.20;2.90;;;;;;;27.41;49.01;100967.98;1739930;82;21006;-81
2022/07/02 10:28:06;;;;;;;3.47;3.00;;;;;;;27.42;49.00;100967.36;1739671;82;21089;-81
2022/07/02 10:30:32;;;;;;;4.30;3.50;;;;;;;27.41;49.00;100972.75;1740026;82;21072;-81
2022/07/02 10:33:12;;;;;;;5.35;3.60;;;;;;;27.40;48.98;100967.74;1739967;82;21061;-81
2022/07/02 10:35:40;;;;;;;3.27;2.98;;;;;;;27.41;49.00;100968.56;1739720;82;48583;-82
2022/07/02 10:38:06;;;;;;;3.30;2.77;;;;;;;27.41;48.98;100965.18;1740020;82;21088;-82
2022/07/02 10:40:32;;;;;;;3.33;3.02;;;;;;;27.42;49.00;100964.57;1691576;84;20961;-82
2022/07/02 10:42:59;;;;;;;4.55;3.22;;;;;;;27.41;49.01;100963.78;1739708;82;20997;-82
2022/07/02 10:45:26;;;;;;;4.15;3.42;;;;;;;27.42;48.98;100960.38;1739979;82;21053;-82
2022/07/02 10:48:05;;;;;;;3.25;2.95;;;;;;;27.41;49.00;100954.59;1734754;82;21071;-82
2022/07/02 10:50:39;;;;;;;3.45;3.15;;;;;;;27.42;48.97;100950.02;1681583;85;21043;-82
2022/07/02 10:53:13;;;;;;;3.95;3.27;;;;;;;27.42;48.97;100963.17;1693258;84;21505;-82
2022/07/02 10:55:52;;;;;;;3.20;2.90;;;;;;;27.41;48.98;100955.41;1667887;84;21107;-82
2022/07/02 10:58:21;;;;;;;3.75;3.45;;;;;;;27.43;48.97;100962.01;1710537;83;21042;-82
2022/07/02 11:00:47;;;;;;;5.53;3.10;;;;;;;27.41;48.97;100958.20;1680165;85;21177;-81
2022/07/02 11:03:18;;;;;;;3.95;3.37;;;;;;;27.41;48.97;100954.01;1708171;83;21544;-81
2022/07/02 11:06:05;;;;;;;3.42;3.12;;;;;;;27.42;48.97;100953.39;1700826;84;21050;-82
2022/07/02 11:08:48;;;;;;;3.42;2.95;;;;;;;27.42;48.98;100955.60;1701609;84;21034;-82
2022/07/02 11:11:22;;;;;;;3.92;3.30;;;;;;;27.41;48.97;100951.80;1723085;82;21599;-82
2022/07/02 11:13:58;;;;;;;3.47;3.00;;;;;;;27.41;48.97;100953.19;1693473;84;22054;-82
2022/07/02 11:16:31;;;;;;;3.72;3.17;;;;;;;27.41;48.98;100950.40;1724000;83;21040;-82
2022/07/02 11:18:58;;;;;;;3.65;3.05;;;;;;;27.42;48.97;100947.80;1699645;81;21072;-82
2022/07/02 11:21:25;;;;;;;3.60;3.27;;;;;;;27.43;48.98;100943.84;1724201;81;21095;-82
2022/07/02 11:23:57;;;;;;;3.17;2.87;;;;;;;27.41;48.99;100940.03;1724299;82;21095;-82
2022/07/02 11:26:27;;;;;;;3.87;3.40;;;;;;;27.42;48.98;100932.44;1708662;83;21117;-82
2022/07/02 11:29:03;;;;;;;3.58;3.27;;;;;;;27.42;48.97;100930.45;1722524;83;21032;-82
2022/07/02 11:31:30;;;;;;;3.60;3.30;;;;;;;27.43;48.96;100929.88;1722763;82;21293;-82
2022/07/02 11:33:58;;;;;;;3.30;3.00;;;;;;;27.43;48.97;100928.48;1722821;82;21539;-82